createdAt,value
2023-01-23T02:27:46.489Z,11.30
2023-01-23T02:30:16.397Z,9.50
2023-01-23T02:32:44.005Z,9.20
2023-01-23T02:35:26.924Z,12.60
2023-01-23T02:37:57.766Z,10.90
2023-01-23T02:40:37.003Z,10.30
2023-01-23T02:43:06.259Z,9.20
2023-01-23T02:45:34.223Z,10.00
2023-01-23T02:48:02.104Z,8.20
2023-01-23T02:50:29.682Z,8.60
2023-01-23T02:52:58.375Z,7.40
2023-01-23T02:55:33.595Z,9.80
2023-01-23T02:58:19.909Z,9.80
2023-01-23T03:00:47.678Z,9.20
2023-01-23T03:03:16.316Z,12.10
2023-01-23T03:05:47.500Z,13.30
2023-01-23T03:08:14.957Z,12.60
2023-01-23T03:10:42.374Z,13.20
2023-01-23T03:13:12.499Z,14.50
2023-01-23T03:15:42.436Z,11.30
2023-01-23T03:18:10.128Z,10.10
2023-01-23T03:20:41.577Z,12.70
2023-01-23T03:23:09.325Z,15.40
2023-01-23T03:25:36.749Z,13.60
2023-01-23T03:28:04.285Z,14.20
2023-01-23T03:30:31.762Z,16.90
2023-01-23T03:32:59.268Z,17.00
2023-01-23T03:35:26.828Z,13.70
2023-01-23T03:37:54.979Z,16.10
2023-01-23T03:40:42.248Z,19.40
2023-01-23T03:43:10.652Z,17.80
2023-01-23T03:45:42.322Z,16.50
2023-01-23T03:48:09.819Z,17.90
2023-01-23T03:50:37.239Z,17.20
2023-01-23T03:53:04.799Z,20.20
2023-01-23T03:55:32.326Z,17.60
2023-01-23T03:57:59.838Z,17.10
2023-01-23T04:00:30.100Z,14.20
2023-01-23T04:03:00.417Z,18.10
2023-01-23T04:05:28.815Z,19.70
2023-01-23T04:07:56.443Z,20.10
2023-01-23T04:10:24.276Z,17.60
2023-01-23T04:12:56.249Z,16.40
2023-01-23T04:15:24.169Z,19.50
2023-01-23T04:17:52.896Z,16.30
2023-01-23T04:20:21.025Z,15.40
2023-01-23T04:22:48.778Z,17.60
2023-01-23T04:25:16.496Z,18.30
2023-01-23T04:27:44.116Z,16.20
2023-01-23T04:30:12.857Z,18.80
2023-01-23T04:32:40.420Z,15.70
2023-01-23T04:35:08.547Z,14.90
2023-01-23T04:37:37.802Z,15.50
2023-01-23T04:40:06.156Z,16.40
2023-01-23T04:42:41.330Z,18.90
2023-01-23T04:47:58.272Z,21.30
2023-01-23T04:50:26.140Z,14.50
2023-01-23T04:52:53.750Z,17.40
2023-01-23T04:55:21.708Z,21.80
2023-01-23T04:57:49.111Z,18.00
2023-01-23T05:00:22.482Z,16.70
2023-01-23T05:02:50.500Z,15.50
2023-01-23T05:05:21.383Z,14.90
2023-01-23T05:07:51.613Z,16.00
2023-01-23T05:10:19.629Z,15.80
2023-01-23T05:12:47.550Z,18.20
2023-01-23T05:15:15.714Z,17.50
2023-01-23T05:17:44.569Z,19.10
2023-01-23T05:20:12.560Z,12.50
2023-01-23T05:22:52.767Z,15.00
2023-01-23T05:25:25.165Z,16.10
2023-01-23T05:27:53.076Z,16.40
2023-01-23T05:30:22.006Z,16.20
2023-01-23T05:32:50.988Z,12.10
2023-01-23T05:35:21.223Z,16.80
2023-01-23T05:37:50.995Z,18.20
2023-01-23T05:40:21.967Z,13.80
2023-01-23T05:43:15.577Z,14.00
2023-01-23T05:46:04.581Z,15.10
2023-01-23T05:48:39.699Z,13.10
2023-01-23T05:51:10.026Z,14.00
2023-01-23T05:53:37.830Z,12.80
2023-01-23T05:56:07.531Z,12.40
2023-01-23T05:58:39.593Z,11.30
2023-01-23T06:01:25.951Z,13.40
2023-01-23T06:04:16.816Z,14.60
2023-01-23T06:06:52.732Z,14.10
2023-01-23T06:09:20.588Z,15.60
2023-01-23T06:11:48.349Z,15.00
2023-01-23T06:14:16.130Z,14.10
2023-01-23T06:16:43.861Z,15.90
2023-01-23T06:19:11.670Z,18.90
2023-01-23T06:21:39.329Z,48.50
2023-01-23T06:24:07.175Z,65.00
2023-01-23T06:26:34.909Z,60.80
2023-01-23T06:29:02.689Z,39.40
2023-01-23T06:31:32.877Z,43.60
2023-01-23T06:34:01.870Z,35.20
2023-01-23T06:36:33.296Z,46.30
2023-01-23T06:39:01.394Z,39.00
2023-01-23T06:41:34.770Z,39.50
2023-01-23T06:44:04.479Z,50.40
2023-01-23T06:46:32.039Z,93.10
2023-01-23T06:48:59.783Z,52.70
2023-01-23T06:51:28.461Z,110.80
2023-01-23T06:53:57.467Z,150.70
2023-01-23T06:56:25.238Z,114.80
2023-01-23T06:58:53.642Z,123.50
2023-01-23T07:01:29.581Z,82.90
2023-01-23T07:06:40.229Z,47.10
2023-01-23T07:09:08.327Z,30.50
2023-01-23T07:11:37.755Z,31.80
2023-01-23T07:14:06.368Z,23.60
2023-01-23T07:16:36.346Z,15.90
2023-01-23T07:19:05.662Z,13.60
2023-01-23T07:21:34.826Z,14.20
2023-01-23T07:24:02.331Z,19.10
2023-01-23T07:26:30.083Z,13.40
2023-01-23T07:28:57.817Z,13.00
2023-01-23T07:31:25.577Z,15.90
2023-01-23T07:33:53.356Z,12.90
2023-01-23T07:36:20.799Z,14.90
2023-01-23T07:38:48.370Z,11.80
2023-01-23T07:41:16.121Z,15.80
2023-01-23T13:45:24.695Z,79.70
2023-01-23T14:22:59.014Z,25.80
2023-01-23T14:25:26.835Z,22.60
2023-01-23T14:28:05.277Z,22.90
2023-01-23T14:30:33.444Z,23.50
2023-01-23T14:33:01.302Z,19.90
2023-01-23T14:35:30.669Z,27.50
2023-01-23T14:38:06.426Z,29.50
2023-01-23T14:40:49.021Z,34.90
2023-01-23T14:43:24.596Z,31.70
2023-01-23T14:46:06.698Z,29.80
2023-01-23T14:48:39.601Z,29.10
2023-01-23T14:51:20.817Z,33.50
2023-01-23T14:56:32.856Z,40.70
2023-01-23T14:59:05.102Z,29.40
2023-01-23T15:01:35.544Z,40.30
2023-01-23T15:04:08.331Z,39.10
2023-01-23T15:06:36.041Z,59.70
2023-01-23T15:09:15.463Z,58.00
2023-01-23T15:11:43.230Z,42.70
2023-01-23T15:14:26.151Z,50.70
2023-01-23T15:17:00.477Z,50.30
2023-01-23T15:19:28.765Z,47.90
2023-01-23T15:22:16.632Z,40.50
2023-01-23T15:24:44.762Z,39.10
2023-01-23T15:27:42.373Z,31.50
2023-01-23T15:30:29.207Z,31.70
2023-01-23T15:32:58.209Z,35.20
2023-01-23T15:35:25.950Z,28.40
2023-01-23T15:37:56.585Z,25.50
2023-01-23T15:40:28.860Z,27.30
2023-01-23T15:43:11.359Z,29.70
2023-01-23T15:45:40.422Z,26.90
2023-01-23T15:48:10.403Z,35.30
2023-01-23T15:50:39.471Z,31.80
2023-01-23T15:53:14.691Z,28.10
2023-01-23T15:55:43.858Z,35.00
2023-01-23T15:58:15.819Z,32.10
2023-01-23T19:52:55.908Z,34.90
2023-01-23T19:55:28.667Z,30.00
2023-01-23T19:57:58.152Z,32.30
2023-01-23T20:00:28.308Z,36.30
2023-01-23T20:02:57.934Z,31.00
2023-01-23T20:05:27.314Z,25.80
2023-01-23T20:07:56.293Z,25.50
2023-01-23T20:10:25.103Z,29.80
2023-01-23T20:12:55.607Z,29.50
2023-01-23T20:15:25.741Z,22.30
2023-01-23T20:17:56.084Z,33.80
2023-01-23T20:20:25.058Z,36.20
2023-01-23T20:22:54.181Z,35.00
2023-01-23T20:25:23.521Z,30.30
2023-01-23T20:27:52.744Z,34.70
2023-01-23T20:30:22.642Z,25.90
2023-01-23T20:32:51.724Z,29.20
2023-01-23T20:35:21.226Z,30.80
2023-01-23T20:37:50.290Z,26.10
2023-01-23T20:40:19.158Z,29.00
2023-01-23T20:42:48.174Z,25.00
2023-01-23T20:45:17.041Z,24.40
2023-01-23T20:47:48.038Z,24.60
2023-01-23T20:50:17.272Z,21.70
2023-01-23T20:53:04.739Z,23.60
2023-01-23T20:55:34.922Z,22.70
2023-01-23T20:58:23.324Z,28.40
2023-01-23T21:00:52.492Z,26.20
2023-01-23T21:03:22.651Z,27.10
2023-01-23T21:05:51.509Z,30.50
2023-01-23T21:08:21.462Z,27.70
2023-01-23T21:10:53.418Z,24.10
2023-01-23T21:13:23.711Z,26.70
2023-01-23T21:16:03.894Z,26.50
2023-01-23T21:18:36.715Z,25.30
2023-01-23T21:21:06.717Z,26.50
2023-01-23T21:23:35.951Z,24.70
2023-01-23T21:26:06.613Z,23.70
2023-01-23T21:28:36.986Z,25.00
2023-01-23T21:31:15.444Z,23.10
2023-01-23T21:33:45.323Z,24.10
2023-01-23T21:36:16.088Z,21.80
2023-01-23T21:38:45.717Z,21.70
2023-01-23T21:41:17.210Z,23.30
2023-01-23T21:43:45.995Z,21.70
2023-01-23T21:46:15.096Z,19.50
2023-01-23T21:48:46.671Z,20.90
2023-01-23T21:51:17.262Z,18.00
2023-01-23T21:53:47.027Z,25.70
2023-01-23T21:56:17.951Z,24.30
2023-01-23T21:58:47.735Z,17.90
2023-01-23T22:01:34.001Z,25.90
2023-01-23T22:04:06.612Z,25.80
2023-01-23T22:06:36.688Z,22.80
2023-01-23T22:09:06.077Z,21.70
2023-01-23T22:11:35.822Z,23.10
2023-01-23T22:14:05.309Z,24.80
2023-01-23T22:16:50.934Z,24.20
2023-01-23T22:19:24.889Z,22.50
2023-01-23T22:21:55.568Z,24.10
2023-01-23T22:24:24.827Z,23.60
2023-01-23T22:26:54.185Z,24.20
2023-01-23T22:29:23.577Z,23.40
2023-01-23T22:31:53.202Z,24.00
2023-01-23T22:34:22.752Z,24.00
2023-01-23T22:36:51.493Z,22.60
2023-01-23T22:39:20.778Z,22.90
2023-01-23T22:41:53.312Z,23.50
2023-01-23T22:44:25.293Z,21.90
2023-01-23T22:46:54.468Z,23.60
2023-01-23T22:49:23.461Z,22.10
2023-01-23T22:51:52.437Z,24.70
2023-01-23T22:54:21.278Z,24.10
2023-01-23T22:56:50.552Z,23.20
2023-01-23T22:59:21.488Z,24.00
2023-01-23T23:01:50.749Z,21.70
2023-01-23T23:04:19.833Z,23.80
2023-01-23T23:06:49.271Z,23.80
2023-01-23T23:09:18.872Z,24.40
2023-01-23T23:11:50.591Z,23.80
2023-01-23T23:14:19.585Z,26.50
2023-01-23T23:16:48.339Z,22.40
2023-01-23T23:19:17.139Z,24.30
2023-01-23T23:21:49.429Z,27.10
2023-01-23T23:24:18.349Z,24.30
2023-01-23T23:26:48.850Z,29.60
2023-01-23T23:29:17.645Z,21.00
2023-01-23T23:31:47.452Z,25.30
2023-01-23T23:34:16.607Z,22.50
2023-01-23T23:36:46.667Z,26.50
2023-01-23T23:39:15.699Z,21.90
2023-01-23T23:41:44.725Z,20.60
2023-01-23T23:44:13.964Z,23.90
2023-01-23T23:46:43.597Z,21.00
2023-01-23T23:49:12.438Z,27.70
2023-01-23T23:54:12.390Z,17.60
2023-01-23T23:56:41.172Z,24.20
2023-01-23T23:59:16.296Z,24.90
